createdAt,value
2019-01-17T00:02:01.424Z,5.60
2019-01-17T00:04:49.678Z,7.57
2019-01-17T00:07:29.835Z,8.63
2019-01-17T00:13:24.206Z,8.10
2019-01-17T00:16:12.419Z,6.10
2019-01-17T00:19:00.727Z,6.63
2019-01-17T00:21:49.176Z,5.63
2019-01-17T00:24:37.681Z,8.60
2019-01-17T00:27:26.060Z,5.20
2019-01-17T00:30:14.287Z,12.60
2019-01-17T00:32:56.967Z,7.53
2019-01-17T00:35:36.427Z,10.87
2019-01-17T00:38:24.672Z,15.43
2019-01-17T00:41:12.860Z,13.53
2019-01-17T00:44:01.040Z,13.97
2019-01-17T00:46:49.318Z,7.57
2019-01-17T00:49:37.689Z,9.07
2019-01-17T00:52:45.017Z,7.23
2019-01-17T00:55:33.206Z,5.73
2019-01-17T00:58:21.438Z,9.93
2019-01-17T01:01:03.376Z,6.97
2019-01-17T01:03:51.734Z,7.27
2019-01-17T01:06:40.177Z,3.77
2019-01-17T01:09:28.424Z,6.80
2019-01-17T01:12:08.512Z,8.40
2019-01-17T01:14:44.484Z,9.40
2019-01-17T01:17:32.729Z,6.60
2019-01-17T01:20:20.938Z,2.63
2019-01-17T01:23:22.438Z,3.47
2019-01-17T01:26:29.658Z,4.33
2019-01-17T01:29:17.841Z,9.50
2019-01-17T01:32:06.290Z,10.03
2019-01-17T01:34:54.498Z,1.80
2019-01-17T01:37:42.788Z,6.50
2019-01-17T01:43:56.327Z,7.80
2019-01-17T01:46:44.940Z,6.90
2019-01-17T01:49:33.251Z,8.77
2019-01-17T01:52:21.546Z,1.90
2019-01-17T01:54:51.110Z,8.20
2019-01-17T01:57:20.400Z,5.07
2019-01-17T01:59:50.034Z,5.87
2019-01-17T02:02:19.308Z,4.27
2019-01-17T02:04:48.756Z,6.23
2019-01-17T02:07:18.073Z,3.10
2019-01-17T02:10:06.256Z,7.70
2019-01-17T02:12:35.890Z,3.30
2019-01-17T02:15:44.509Z,3.50
2019-01-17T02:18:13.985Z,6.43
2019-01-17T02:20:43.286Z,4.97
2019-01-17T02:23:12.926Z,10.10
2019-01-17T02:25:42.224Z,4.23
2019-01-17T02:28:11.567Z,7.43
2019-01-17T02:30:40.859Z,3.87
2019-01-17T02:33:10.212Z,12.90
2019-01-17T02:35:39.507Z,6.63
2019-01-17T02:38:08.893Z,8.30
2019-01-17T02:40:38.243Z,5.00
2019-01-17T02:43:07.526Z,9.03
2019-01-17T02:45:36.841Z,5.00
2019-01-17T02:48:06.117Z,6.63
2019-01-17T02:50:35.398Z,12.67
2019-01-17T02:53:04.801Z,7.10
2019-01-17T02:55:34.329Z,7.63
2019-01-17T02:58:03.622Z,9.03
2019-01-17T03:00:33.175Z,5.50
2019-01-17T03:03:02.451Z,8.43
2019-01-17T03:05:31.890Z,3.10
2019-01-17T03:08:01.171Z,7.40
2019-01-17T03:10:30.701Z,2.27
2019-01-17T03:12:59.992Z,1.60
2019-01-17T03:15:29.486Z,1.30
2019-01-17T03:17:58.785Z,2.10
2019-01-17T03:20:28.353Z,0.50
2019-01-17T03:22:57.624Z,1.90
2019-01-17T03:25:27.365Z,0.40
2019-01-17T03:27:56.732Z,1.57
2019-01-17T03:30:26.243Z,0.53
2019-01-17T03:35:50.300Z,0.37
2019-01-17T03:38:19.568Z,1.77
2019-01-17T03:40:49.257Z,1.10
2019-01-17T03:43:18.548Z,0.80
2019-01-17T03:45:47.879Z,0.60
2019-01-17T03:48:36.245Z,0.60
2019-01-17T03:51:16.770Z,1.00
2019-01-17T03:53:57.889Z,0.57
2019-01-17T03:56:27.345Z,3.73
2019-01-17T03:58:56.616Z,0.80
2019-01-17T04:01:26.665Z,0.90
2019-01-17T04:06:44.339Z,1.17
2019-01-17T04:09:13.765Z,0.50
2019-01-17T04:11:43.033Z,1.17
2019-01-17T04:14:12.456Z,1.03
2019-01-17T04:16:41.767Z,0.50
2019-01-17T04:19:11.378Z,0.60
2019-01-17T04:21:40.646Z,0.90
2019-01-17T04:24:10.342Z,0.70
2019-01-17T04:26:58.970Z,0.97
2019-01-17T04:29:47.241Z,0.40
2019-01-17T04:32:16.542Z,0.30
2019-01-17T04:34:46.278Z,0.20
2019-01-17T04:37:15.625Z,0.30
2019-01-17T04:42:52.411Z,0.20
2019-01-17T04:45:22.067Z,0.40
2019-01-17T04:47:51.363Z,0.30
2019-01-17T04:50:20.925Z,0.77
2019-01-17T04:52:50.208Z,0.77
2019-01-17T04:55:19.631Z,0.27
2019-01-17T05:00:37.227Z,0.30
2019-01-17T05:03:06.565Z,0.30
2019-01-17T05:05:35.860Z,0.33
2019-01-17T05:08:05.344Z,0.20
2019-01-17T05:10:55.109Z,0.50
2019-01-17T05:13:24.503Z,0.30
2019-01-17T05:15:54.034Z,0.30
2019-01-17T05:18:23.355Z,0.73
2019-01-17T05:20:52.821Z,0.13
2019-01-17T05:23:22.130Z,0.40
2019-01-17T05:25:51.450Z,0.13
2019-01-17T05:28:20.736Z,0.40
2019-01-17T05:30:50.075Z,0.20
2019-01-17T05:33:19.366Z,0.37
2019-01-17T05:35:48.782Z,0.20
2019-01-17T05:38:18.234Z,0.30
2019-01-17T05:40:47.707Z,0.20
2019-01-17T05:43:17.321Z,0.23
2019-01-17T05:45:46.714Z,0.73
2019-01-17T05:48:16.842Z,0.30
2019-01-17T05:50:46.223Z,0.20
2019-01-17T05:53:15.717Z,1.60
2019-01-17T05:55:45.214Z,0.47
2019-01-17T05:58:14.518Z,0.23
2019-01-17T06:00:44.186Z,0.03
2019-01-17T06:03:13.466Z,0.17
2019-01-17T06:06:22.248Z,0.20
2019-01-17T06:08:51.539Z,0.57
2019-01-17T06:11:21.112Z,0.10
2019-01-17T06:13:50.407Z,0.60
2019-01-17T06:16:20.070Z,0.23
2019-01-17T06:18:49.399Z,0.20
2019-01-17T06:23:54.215Z,0.07
2019-01-17T06:26:23.596Z,0.20
2019-01-17T06:28:53.028Z,2.40
2019-01-17T06:31:22.329Z,0.27
2019-01-17T06:33:52.607Z,0.50
2019-01-17T06:36:21.889Z,0.27
2019-01-17T06:38:51.363Z,0.50
2019-01-17T06:41:20.707Z,0.17
2019-01-17T06:43:51.151Z,0.73
2019-01-17T06:46:21.110Z,0.23
2019-01-17T06:48:50.624Z,0.13
2019-01-17T06:51:59.233Z,0.30
2019-01-17T06:54:28.664Z,0.20
2019-01-17T06:56:57.975Z,0.20
2019-01-17T06:59:27.699Z,0.93
2019-01-17T07:01:57.016Z,0.30
2019-01-17T07:04:26.326Z,0.17
2019-01-17T07:06:55.694Z,0.30
2019-01-17T07:09:25.099Z,0.20
2019-01-17T07:11:54.407Z,0.20
2019-01-17T07:14:24.021Z,0.53
2019-01-17T07:17:12.255Z,0.20
2019-01-17T07:19:41.594Z,0.20
2019-01-17T07:22:30.198Z,0.67
2019-01-17T07:24:59.673Z,0.60
2019-01-17T07:27:28.979Z,0.10
2019-01-17T07:29:58.794Z,0.37
2019-01-17T07:32:28.167Z,0.53
2019-01-17T07:34:57.928Z,0.53
2019-01-17T07:37:27.292Z,0.67
2019-01-17T07:39:57.419Z,0.23
2019-01-17T07:42:26.758Z,0.23
2019-01-17T07:44:56.446Z,0.20
2019-01-17T07:47:25.899Z,0.10
2019-01-17T07:49:55.709Z,0.63
2019-01-17T07:52:25.114Z,0.20
2019-01-17T07:54:54.491Z,0.10
2019-01-17T07:57:23.787Z,0.57
2019-01-17T07:59:53.243Z,0.20
2019-01-17T08:02:22.560Z,0.90
2019-01-17T08:04:52.043Z,0.17
2019-01-17T08:07:40.538Z,0.20
2019-01-17T08:10:11.918Z,0.53
2019-01-17T08:12:41.215Z,0.30
2019-01-17T08:15:50.123Z,0.20
2019-01-17T08:18:19.445Z,0.43
2019-01-17T08:20:48.832Z,0.23
2019-01-17T08:23:18.286Z,0.27
2019-01-17T08:25:53.968Z,0.20
2019-01-17T08:28:18.688Z,0.50
2019-01-17T08:30:48.043Z,0.60
2019-01-17T08:35:52.689Z,1.43
2019-01-17T08:38:22.068Z,0.10
2019-01-17T08:40:51.544Z,0.40
2019-01-17T08:43:20.923Z,0.43
2019-01-17T08:46:09.234Z,0.13
2019-01-17T08:48:50.459Z,0.10
2019-01-17T08:51:19.771Z,1.97
2019-01-17T08:53:49.181Z,0.13
2019-01-17T08:56:37.692Z,0.30
2019-01-17T08:59:07.089Z,0.10
2019-01-17T09:01:36.726Z,0.40
2019-01-17T09:04:06.338Z,0.20
2019-01-17T09:09:44.625Z,0.20
2019-01-17T09:12:13.970Z,0.47
2019-01-17T09:14:54.609Z,0.20
2019-01-17T09:17:24.229Z,0.20
2019-01-17T09:19:53.504Z,0.20
2019-01-17T09:22:23.200Z,0.37
2019-01-17T09:24:52.507Z,0.30
2019-01-17T09:27:22.447Z,0.20
2019-01-17T09:30:14.787Z,0.10
2019-01-17T09:32:46.774Z,0.13
2019-01-17T09:38:36.201Z,0.63
2019-01-17T09:41:05.499Z,0.40
2019-01-17T09:43:35.052Z,0.10
2019-01-17T09:46:04.343Z,0.10
2019-01-17T09:49:13.188Z,0.10
2019-01-17T09:51:42.747Z,0.70
2019-01-17T09:54:19.824Z,0.20
2019-01-17T09:56:49.249Z,3.83
2019-01-17T09:59:18.629Z,0.27
2019-01-17T10:02:27.510Z,0.10
2019-01-17T10:04:57.084Z,2.10
2019-01-17T10:07:45.427Z,0.27
2019-01-17T10:10:16.534Z,0.23
2019-01-17T10:12:48.042Z,0.77
2019-01-17T10:15:21.333Z,0.23
2019-01-17T10:18:28.762Z,0.20
2019-01-17T10:21:36.067Z,0.30
2019-01-17T10:24:43.653Z,0.20
2019-01-17T10:31:19.333Z,0.40
2019-01-17T10:34:30.943Z,0.20
2019-01-17T10:37:39.697Z,0.10
2019-01-17T10:40:47.078Z,0.10
2019-01-17T10:43:54.525Z,0.23
2019-01-17T10:46:56.195Z,1.67
2019-01-17T10:50:03.814Z,0.20
2019-01-17T10:53:12.974Z,0.77
2019-01-17T10:56:20.283Z,0.30
2019-01-17T10:59:27.680Z,0.30
2019-01-17T11:02:21.211Z,0.20
2019-01-17T11:08:41.728Z,0.67
2019-01-17T11:11:37.215Z,0.10
2019-01-17T11:14:46.720Z,1.13
2019-01-17T11:17:54.220Z,0.23
2019-01-17T11:20:46.465Z,0.60
2019-01-17T11:23:54.291Z,0.53
2019-01-17T11:27:01.601Z,0.40
2019-01-17T11:29:56.273Z,0.20
2019-01-17T11:33:03.619Z,0.33
2019-01-17T11:35:57.049Z,0.20
2019-01-17T11:42:16.572Z,0.20
2019-01-17T11:45:23.918Z,0.60
2019-01-17T11:48:18.955Z,1.40
2019-01-17T11:51:26.450Z,0.83
2019-01-17T11:54:33.744Z,0.63
2019-01-17T11:57:30.391Z,0.77
2019-01-17T12:00:24.887Z,1.47
2019-01-17T12:03:32.275Z,0.20
2019-01-17T12:06:01.595Z,0.20
2019-01-17T12:08:30.977Z,0.20
2019-01-17T12:11:00.270Z,0.20
2019-01-17T12:13:29.598Z,0.10
2019-01-17T12:15:58.906Z,1.07
2019-01-17T12:18:28.213Z,0.67
2019-01-17T12:20:57.508Z,0.20
2019-01-17T12:23:26.905Z,0.20
2019-01-17T12:26:15.267Z,0.13
2019-01-17T12:28:44.554Z,3.43
2019-01-17T12:31:13.865Z,0.20
2019-01-17T12:33:43.313Z,0.30
2019-01-17T12:36:12.657Z,0.20
2019-01-17T12:38:41.971Z,0.00
2019-01-17T12:41:11.296Z,0.20
2019-01-17T12:43:40.576Z,0.17
2019-01-17T12:46:09.942Z,6.33
2019-01-17T12:48:39.261Z,0.10
2019-01-17T12:51:08.539Z,0.10
2019-01-17T12:53:38.277Z,0.10
2019-01-17T12:56:07.623Z,0.57
2019-01-17T12:58:37.145Z,0.10
2019-01-17T13:03:54.832Z,0.10
2019-01-17T13:06:24.431Z,0.60
2019-01-17T13:08:53.729Z,0.97
2019-01-17T13:11:23.241Z,0.10
2019-01-17T13:13:52.540Z,0.10
2019-01-17T13:16:22.252Z,0.63
2019-01-17T13:18:51.570Z,0.40
2019-01-17T13:21:21.197Z,0.10
2019-01-17T13:24:09.691Z,0.10
2019-01-17T13:26:38.987Z,0.10
2019-01-17T13:29:08.357Z,0.20
2019-01-17T13:31:37.676Z,0.10
2019-01-17T13:34:07.267Z,4.33
2019-01-17T13:36:40.263Z,0.17
2019-01-17T13:39:28.848Z,0.30
2019-01-17T13:41:59.004Z,0.77
2019-01-17T13:44:29.266Z,0.87
2019-01-17T13:46:58.545Z,0.50
2019-01-17T13:49:28.219Z,0.20
2019-01-17T13:51:57.519Z,0.20
2019-01-17T13:54:27.109Z,0.40
2019-01-17T13:56:56.451Z,0.10
2019-01-17T13:59:25.964Z,3.63
2019-01-17T14:01:55.291Z,0.10
2019-01-17T14:04:25.022Z,0.10
2019-01-17T14:06:54.385Z,0.10
2019-01-17T14:09:24.125Z,0.83
2019-01-17T14:12:12.330Z,0.40
2019-01-17T14:14:42.561Z,0.20
2019-01-17T14:17:12.067Z,1.50
2019-01-17T14:20:00.378Z,0.10
2019-01-17T14:22:29.660Z,0.20
2019-01-17T14:24:59.193Z,4.27
2019-01-17T14:27:28.517Z,1.20
2019-01-17T14:30:18.313Z,0.10
2019-01-17T14:32:48.184Z,0.20
2019-01-17T14:38:19.168Z,1.43
2019-01-17T14:43:44.009Z,3.83
2019-01-17T14:46:13.612Z,1.43
2019-01-17T14:48:42.885Z,0.20
2019-01-17T14:51:12.589Z,0.20
2019-01-17T14:53:41.935Z,3.33
2019-01-17T14:56:11.567Z,0.30
2019-01-17T14:58:40.987Z,0.40
2019-01-17T15:03:47.460Z,1.40
2019-01-17T15:06:16.835Z,0.33
2019-01-17T15:08:46.263Z,0.63
2019-01-17T15:11:15.604Z,0.10
2019-01-17T15:13:44.989Z,1.70
2019-01-17T15:16:14.274Z,2.23
2019-01-17T15:18:43.598Z,0.10
2019-01-17T15:21:12.937Z,1.80
2019-01-17T15:23:42.510Z,0.43
2019-01-17T15:26:11.819Z,0.30
2019-01-17T15:28:41.325Z,0.20
2019-01-17T15:31:10.791Z,0.30
2019-01-17T15:33:40.162Z,0.20
2019-01-17T15:36:28.727Z,0.60
2019-01-17T15:38:58.088Z,1.13
2019-01-17T15:41:28.618Z,0.37
2019-01-17T15:43:59.257Z,0.77
2019-01-17T15:49:41.576Z,0.30
2019-01-17T15:52:10.902Z,0.40
2019-01-17T15:54:40.305Z,0.03
2019-01-17T15:57:09.650Z,0.97
2019-01-17T15:59:39.372Z,0.20
2019-01-17T16:02:08.657Z,1.90
2019-01-17T16:04:38.077Z,0.10
2019-01-17T16:07:07.399Z,0.90
2019-01-17T16:09:37.435Z,1.40
2019-01-17T16:12:06.815Z,0.50
2019-01-17T16:14:36.252Z,0.40
2019-01-17T16:17:24.448Z,0.43
2019-01-17T16:19:54.646Z,0.50
2019-01-17T16:22:24.210Z,0.93
2019-01-17T16:24:53.490Z,0.33
2019-01-17T16:27:22.987Z,0.20
2019-01-17T16:29:52.363Z,0.30
2019-01-17T16:32:21.783Z,0.40
2019-01-17T16:34:51.133Z,1.90
2019-01-17T16:37:20.557Z,0.67
2019-01-17T16:42:38.107Z,0.30
2019-01-17T16:45:26.453Z,0.20
2019-01-17T16:47:56.069Z,0.37
2019-01-17T16:50:26.706Z,0.30
2019-01-17T16:52:56.336Z,0.10
2019-01-17T16:55:25.658Z,1.37
2019-01-17T16:57:55.223Z,1.57
2019-01-17T17:00:44.999Z,0.37
2019-01-17T17:06:13.595Z,0.83
2019-01-17T17:08:43.015Z,0.20
2019-01-17T17:11:12.328Z,0.40
2019-01-17T17:13:41.767Z,0.50
2019-01-17T17:16:11.083Z,0.83
2019-01-17T17:18:40.405Z,0.57
2019-01-17T17:21:09.698Z,0.87
2019-01-17T17:23:58.087Z,0.30
2019-01-17T17:26:27.390Z,0.40
2019-01-17T17:28:56.952Z,0.43
2019-01-17T17:31:26.259Z,2.63
2019-01-17T17:34:14.737Z,0.33
2019-01-17T17:39:57.719Z,1.20
2019-01-17T17:42:27.008Z,1.93
2019-01-17T17:44:56.446Z,0.73
2019-01-17T17:47:25.862Z,0.40
2019-01-17T17:53:17.821Z,0.23
2019-01-17T17:55:47.127Z,0.20
2019-01-17T17:58:16.504Z,0.50
2019-01-17T18:00:52.936Z,1.60
2019-01-17T18:03:22.284Z,1.10
2019-01-17T18:05:51.904Z,0.23
2019-01-17T18:08:21.322Z,1.17
2019-01-17T18:10:50.818Z,0.30
2019-01-17T18:13:20.137Z,0.50
2019-01-17T18:15:49.596Z,0.33
2019-01-17T18:18:18.994Z,0.20
2019-01-17T18:20:48.302Z,2.03
2019-01-17T18:23:17.706Z,0.73
2019-01-17T18:25:47.099Z,0.80
2019-01-17T18:28:16.522Z,0.37
2019-01-17T18:30:46.040Z,2.10
2019-01-17T18:33:15.390Z,0.30
2019-01-17T18:35:44.751Z,0.37
2019-01-17T18:38:14.086Z,2.00
2019-01-17T18:40:43.635Z,0.40
2019-01-17T18:43:12.935Z,1.00
2019-01-17T18:46:01.705Z,0.70
2019-01-17T18:48:31.010Z,0.23
2019-01-17T18:51:00.322Z,2.13
2019-01-17T18:53:29.676Z,0.30
2019-01-17T18:55:59.047Z,0.30
2019-01-17T18:58:28.418Z,1.10
2019-01-17T19:01:16.875Z,0.20
2019-01-17T19:03:47.474Z,0.20
2019-01-17T19:06:17.010Z,1.03
2019-01-17T19:09:21.658Z,0.93
2019-01-17T19:15:00.670Z,0.20
2019-01-17T19:20:42.197Z,0.23
2019-01-17T19:23:18.205Z,0.43
2019-01-17T19:25:47.903Z,0.40
2019-01-17T19:28:22.326Z,0.50
2019-01-17T19:30:48.399Z,0.30
2019-01-17T19:33:17.725Z,0.90
2019-01-17T19:35:47.337Z,1.13
2019-01-17T19:38:16.682Z,0.63
2019-01-17T19:40:46.105Z,0.77
2019-01-17T19:43:15.394Z,0.30
2019-01-17T19:45:45.046Z,1.33
2019-01-17T19:48:14.363Z,2.10
2019-01-17T19:50:43.973Z,0.40
2019-01-17T19:53:13.353Z,1.23
2019-01-17T19:56:15.776Z,0.20
2019-01-17T19:58:58.827Z,0.50
2019-01-17T20:01:28.181Z,0.20
2019-01-17T20:03:57.873Z,0.53
2019-01-17T20:06:27.230Z,4.43
2019-01-17T20:09:16.551Z,0.83
2019-01-17T20:11:46.170Z,0.50
2019-01-17T20:14:15.539Z,0.37
2019-01-17T20:16:45.280Z,1.20
2019-01-17T20:19:33.847Z,1.60
2019-01-17T20:22:03.182Z,0.40
2019-01-17T20:24:32.815Z,0.43
2019-01-17T20:27:02.145Z,3.40
2019-01-17T20:29:31.723Z,1.67
2019-01-17T20:32:01.025Z,3.30
2019-01-17T20:34:30.606Z,0.57
2019-01-17T20:36:59.906Z,2.00
2019-01-17T20:39:29.341Z,0.57
2019-01-17T20:41:58.658Z,1.90
2019-01-17T20:44:28.215Z,0.40
2019-01-17T20:46:57.601Z,4.37
2019-01-17T20:49:27.125Z,1.13
2019-01-17T20:51:56.455Z,0.97
2019-01-17T20:54:26.234Z,0.50
2019-01-17T20:57:14.439Z,0.37
2019-01-17T20:59:43.833Z,5.50
2019-01-17T21:02:16.897Z,0.97
2019-01-17T21:04:46.245Z,0.87
2019-01-17T21:07:15.845Z,0.67
2019-01-17T21:09:45.159Z,0.30
2019-01-17T21:12:14.522Z,0.47
2019-01-17T21:17:33.754Z,0.60
2019-01-17T21:20:03.128Z,0.93
2019-01-17T21:22:32.471Z,1.17
2019-01-17T21:25:01.988Z,0.37
2019-01-17T21:27:31.283Z,1.77
2019-01-17T21:30:00.748Z,3.47
2019-01-17T21:32:30.057Z,0.87
2019-01-17T21:34:59.462Z,0.53
2019-01-17T21:37:28.805Z,0.53
2019-01-17T21:39:58.262Z,1.53
2019-01-17T21:42:27.581Z,1.90
2019-01-17T21:47:32.921Z,0.30
2019-01-17T21:50:02.318Z,1.67
2019-01-17T21:52:50.612Z,1.37
2019-01-17T21:55:20.391Z,2.27
2019-01-17T21:57:49.711Z,3.53
2019-01-17T22:00:21.442Z,1.57
2019-01-17T22:02:50.883Z,3.27
2019-01-17T22:05:20.188Z,2.10
2019-01-17T22:07:49.515Z,3.03
2019-01-17T22:10:19.162Z,2.13
2019-01-17T22:12:48.491Z,1.37
2019-01-17T22:15:20.105Z,1.27
2019-01-17T22:17:49.393Z,1.47
2019-01-17T22:20:19.116Z,0.80
2019-01-17T22:26:02.785Z,1.47
2019-01-17T22:28:32.068Z,1.10
2019-01-17T22:31:01.367Z,2.63
2019-01-17T22:33:30.655Z,1.17
2019-01-17T22:36:00.026Z,0.40
2019-01-17T22:38:48.380Z,1.30
2019-01-17T22:41:17.678Z,1.37
2019-01-17T22:43:46.964Z,2.53
2019-01-17T22:46:16.274Z,2.80
2019-01-17T22:48:45.566Z,4.13
2019-01-17T22:51:15.039Z,2.20
2019-01-17T22:53:44.358Z,1.43
2019-01-17T22:56:13.849Z,0.80
2019-01-17T22:58:43.140Z,0.67
2019-01-17T23:01:35.376Z,0.80
2019-01-17T23:04:06.471Z,1.17
2019-01-17T23:06:35.910Z,2.53
2019-01-17T23:09:24.328Z,0.70
2019-01-17T23:11:53.643Z,2.20
2019-01-17T23:14:23.279Z,0.63
2019-01-17T23:16:52.564Z,2.03
2019-01-17T23:19:22.239Z,1.17
2019-01-17T23:21:51.534Z,0.57
2019-01-17T23:24:21.203Z,0.73
2019-01-17T23:26:50.508Z,1.67
2019-01-17T23:29:19.917Z,0.93
2019-01-17T23:31:49.215Z,3.43
2019-01-17T23:34:18.827Z,1.13
2019-01-17T23:36:48.983Z,1.30
2019-01-17T23:39:19.369Z,2.80
2019-01-17T23:41:48.679Z,1.50
2019-01-17T23:44:18.286Z,1.00
2019-01-17T23:47:06.629Z,4.20
2019-01-17T23:49:35.959Z,0.70
2019-01-17T23:52:06.011Z,1.37
2019-01-17T23:54:35.317Z,1.57
2019-01-17T23:57:04.990Z,0.73
2019-01-17T23:59:34.328Z,0.40
